Time;durP1;ratioP1;P1;durP2;ratioP2;P2;SDS_P1;SDS_P2;PMS_P1;PMS_P2;Temp;Humidity;BMP_temperature;BMP_pressure;BME280_temperature;BME280_humidity;BME280_pressure;Samples;Min_cycle;Max_cycle;Signal;HPM_P1;HPM_P2
2022/08/07 00:02:17;;;;;;;34.43;6.43;;;;;;;;;;5009621;28;20889;-71
2022/08/07 00:04:44;;;;;;;92.10;12.93;;;;;;;;;;5013588;28;20489;-70
2022/08/07 00:07:13;;;;;;;36.40;6.10;;;;;;;;;;5014874;28;20481;-70
2022/08/07 00:09:42;;;;;;;64.33;10.10;;;;;;;;;;5013331;28;20480;-70
2022/08/07 00:12:09;;;;;;;20.30;3.83;;;;;;;;;;5013532;28;20489;-69
2022/08/07 00:14:37;;;;;;;62.50;8.97;;;;;;;;;;5013444;28;20901;-69
2022/08/07 00:17:06;;;;;;;20.43;5.23;;;;;;;;;;5012469;28;20488;-70
2022/08/07 00:19:33;;;;;;;33.90;5.80;;;;;;;;;;5010710;28;20944;-69
2022/08/07 00:22:00;;;;;;;40.77;6.90;;;;;;;;;;5011182;28;20508;-69
2022/08/07 00:24:27;;;;;;;33.60;5.90;;;;;;;;;;5009015;28;20485;-70
2022/08/07 00:26:54;;;;;;;21.60;3.90;;;;;;;;;;4998638;28;20547;-70
2022/08/07 00:29:24;;;;;;;43.07;6.20;;;;;;;;;;5010363;28;20484;-70
2022/08/07 00:31:52;;;;;;;48.20;8.83;;;;;;;;;;5013574;28;22807;-70
2022/08/07 00:34:20;;;;;;;41.43;6.93;;;;;;;;;;5013797;28;21004;-70
2022/08/07 00:36:47;;;;;;;59.07;9.00;;;;;;;;;;5014511;28;20786;-69
2022/08/07 00:39:15;;;;;;;35.57;6.23;;;;;;;;;;5015182;28;20492;-69
2022/08/07 00:41:48;;;;;;;87.53;13.07;;;;;;;;;;5012641;28;20473;-69
2022/08/07 00:44:15;;;;;;;38.43;6.37;;;;;;;;;;5012779;28;21230;-70
2022/08/07 00:46:42;;;;;;;55.83;8.70;;;;;;;;;;5013621;28;20481;-70
2022/08/07 00:49:09;;;;;;;26.90;5.37;;;;;;;;;;5012346;28;20468;-71
2022/08/07 00:51:38;;;;;;;62.10;9.40;;;;;;;;;;5012086;28;20488;-70
2022/08/07 00:54:06;;;;;;;43.47;7.57;;;;;;;;;;5011338;28;21411;-69
2022/08/07 00:56:33;;;;;;;48.77;6.37;;;;;;;;;;5013567;28;20473;-71
2022/08/07 00:59:00;;;;;;;22.80;4.90;;;16.30;64.70;;;;;;5001904;28;20527;-70
2022/08/07 01:01:27;;;;;;;32.60;6.00;;;;;;;;;;5013098;28;20562;-71
2022/08/07 01:03:57;;;;;;;50.37;7.53;;;;;;;;;;5011038;28;20546;-70
2022/08/07 01:06:24;;;;;;;36.23;6.30;;;;;;;;;;5011921;28;20906;-69
2022/08/07 01:08:53;;;;;;;51.70;8.03;;;;;;;;;;5011304;28;20487;-68
2022/08/07 01:11:20;;;;;;;29.87;4.70;;;;;;;;;;5013120;28;20527;-69
2022/08/07 01:13:47;;;;;;;70.67;11.20;;;;;;;;;;5011397;28;20887;-70
2022/08/07 01:16:14;;;;;;;42.70;7.33;;;;;;;;;;5016208;28;21057;-69
2022/08/07 01:18:41;;;;;;;81.37;11.43;;;;;;;;;;5017623;28;21207;-68
2022/08/07 01:21:14;;;;;;;35.43;5.53;;;;;;;;;;5016492;28;21118;-69
2022/08/07 01:23:41;;;;;;;93.40;13.30;;;;;;;;;;5009664;28;20923;-68
2022/08/07 01:26:11;;;;;;;29.00;5.10;;;;;;;;;;5017292;28;20484;-69
2022/08/07 01:28:40;;;;;;;27.90;5.10;;;;;;;;;;5016613;28;20488;-70
2022/08/07 01:31:08;;;;;;;26.57;5.00;;;;;;;;;;5019033;28;20558;-69
2022/08/07 01:33:35;;;;;;;35.00;6.00;;;;;;;;;;5010398;28;20534;-68
2022/08/07 01:36:02;;;;;;;32.77;5.10;;;;;;;;;;5022101;28;20476;-69
2022/08/07 01:38:31;;;;;;;38.43;4.53;;;;;;;;;;5020149;28;20504;-69
2022/08/07 01:40:59;;;;;;;31.20;5.93;;;15.80;67.60;;;;;;5022860;28;20568;-69
2022/08/07 01:43:27;;;;;;;24.87;4.50;;;;;;;;;;5024737;28;20862;-69
2022/08/07 01:45:54;;;;;;;24.93;3.93;;;;;;;;;;5019407;28;20481;-69
2022/08/07 01:48:21;;;;;;;19.23;3.87;;;;;;;;;;5013955;28;20488;-68
2022/08/07 01:50:50;;;;;;;80.33;11.70;;;;;;;;;;5017101;28;20997;-69
2022/08/07 01:53:19;;;;;;;40.50;6.00;;;;;;;;;;5002735;28;20589;-69
2022/08/07 01:55:50;;;;;;;51.00;7.87;;;;;;;;;;5022056;28;20486;-68
2022/08/07 01:58:20;;;;;;;27.67;4.90;;;;;;;;;;5025008;28;20503;-69
2022/08/07 02:00:49;;;;;;;58.40;8.60;;;;;;;;;;5022060;28;20489;-69
2022/08/07 02:03:16;;;;;;;31.40;5.20;;;;;;;;;;5022127;28;20493;-68
2022/08/07 02:05:45;;;;;;;77.57;11.33;;;;;;;;;;5017634;28;21232;-70
2022/08/07 02:08:14;;;;;;;28.13;4.87;;;15.20;68.50;;;;;;5009085;28;21165;-70
2022/08/07 02:10:42;;;;;;;72.27;10.40;;;;;;;;;;5012073;28;20530;-69
2022/08/07 02:13:12;;;;;;;24.17;4.50;;;15.20;68.80;;;;;;5023469;28;20782;-68
2022/08/07 02:15:39;;;;;;;41.73;6.77;;;;;;;;;;5019609;28;20888;-69
2022/08/07 02:18:10;;;;;;;20.47;3.83;;;;;;;;;;5004733;28;20478;-70
2022/08/07 02:20:37;;;;;;;55.93;7.90;;;;;;;;;;5032917;28;20534;-69
2022/08/07 02:23:06;;;;;;;24.67;5.30;;;;;;;;;;5021522;28;20484;-70
2022/08/07 02:25:35;;;;;;;32.23;5.50;;;;;;;;;;5019080;28;20972;-69
2022/08/07 02:28:03;;;;;;;28.00;4.67;;;;;;;;;;5014486;28;20481;-70
2022/08/07 02:30:34;;;;;;;23.87;4.50;;;;;;;;;;5016964;28;20477;-69
2022/08/07 02:33:01;;;;;;;14.57;3.70;;;;;;;;;;5017322;28;20492;-70
2022/08/07 02:35:28;;;;;;;21.30;3.97;;;;;;;;;;5019018;28;20485;-68
2022/08/07 02:37:56;;;;;;;27.40;5.70;;;;;;;;;;5020958;28;20492;-69
2022/08/07 02:40:24;;;;;;;33.97;5.43;;;;;;;;;;5010803;28;20493;-69
2022/08/07 02:42:51;;;;;;;54.33;8.23;;;;;;;;;;5018236;28;20875;-69
2022/08/07 02:45:19;;;;;;;29.83;5.40;;;;;;;;;;5000464;28;20879;-69
2022/08/07 02:47:48;;;;;;;55.30;8.43;;;;;;;;;;5020978;28;20481;-69
2022/08/07 02:50:15;;;;;;;42.17;6.90;;;;;;;;;;5022241;28;20488;-69
2022/08/07 02:52:44;;;;;;;64.80;9.53;;;;;;;;;;5012836;28;20481;-69
2022/08/07 02:55:15;;;;;;;20.87;4.30;;;;;;;;;;5020443;28;20562;-69
2022/08/07 02:57:44;;;;;;;42.67;6.70;;;;;;;;;;5020643;28;20484;-71
2022/08/07 03:00:12;;;;;;;24.23;4.17;;;;;;;;;;5021396;28;20515;-69
2022/08/07 03:02:43;;;;;;;75.37;8.90;;;;;;;;;;5019375;28;20485;-69
2022/08/07 03:05:12;;;;;;;35.50;5.30;;;;;;;;;;5022391;28;20495;-69
2022/08/07 03:07:39;;;;;;;58.00;8.83;;;;;;;;;;5016725;28;20848;-69
2022/08/07 03:10:08;;;;;;;27.23;5.30;;;;;;;;;;5017330;28;20484;-69
2022/08/07 03:12:36;;;;;;;48.63;7.80;;;;;;;;;;5001475;28;20539;-69
2022/08/07 03:15:04;;;;;;;25.37;5.10;;;;;;;;;;5010410;28;20796;-70
2022/08/07 03:17:33;;;;;;;21.53;4.00;;;;;;;;;;5018727;28;20833;-69
2022/08/07 03:20:00;;;;;;;18.73;3.80;;;;;;;;;;5009123;28;20468;-69
2022/08/07 03:22:29;;;;;;;27.73;5.27;;;;;;;;;;5001819;28;20833;-70
2022/08/07 03:24:58;;;;;;;19.53;4.10;;;;;;;;;;5022960;28;21157;-70
2022/08/07 03:27:26;;;;;;;16.90;3.83;;;;;;;;;;5021693;28;20476;-71
2022/08/07 03:29:54;;;;;;;48.37;7.97;;;;;;;;;;5018757;28;20481;-70
2022/08/07 03:32:22;;;;;;;23.87;4.47;;;;;;;;;;5020268;28;20484;-70
2022/08/07 03:34:52;;;;;;;47.87;7.93;;;;;;;;;;5017247;28;20485;-70
2022/08/07 03:37:19;;;;;;;42.97;6.40;;;;;;;;;;5001197;28;20484;-70
2022/08/07 03:39:48;;;;;;;58.33;8.70;;;;;;;;;;5011396;28;20490;-69
2022/08/07 03:42:17;;;;;;;34.03;5.67;;;;;;;;;;5025944;28;20560;-70
2022/08/07 03:44:44;;;;;;;84.80;12.63;;;;;;;;;;5018853;28;20481;-70
2022/08/07 03:47:12;;;;;;;34.63;6.13;;;;;;;;;;5020281;28;20476;-69
2022/08/07 03:49:40;;;;;;;27.30;5.13;;;;;;;;;;5018805;28;20492;-70
2022/08/07 03:52:08;;;;;;;22.97;4.47;;;;;;;;;;5010444;28;20480;-70
2022/08/07 03:54:37;;;;;;;27.90;4.80;;;;;;;;;;5017230;28;20477;-70
2022/08/07 03:57:06;;;;;;;13.30;3.63;;;;;;;;;;4992063;28;20485;-70
2022/08/07 03:59:33;;;;;;;33.50;5.87;;;;;;;;;;5003995;28;20480;-70
2022/08/07 04:02:01;;;;;;;35.03;6.47;;;;;;;;;;5001557;28;20577;-70
2022/08/07 04:04:29;;;;;;;27.73;5.77;;;;;;;;;;5018069;28;20841;-69
2022/08/07 04:06:57;;;;;;;21.90;4.47;;;;;;;;;;5019280;28;20481;-70
2022/08/07 04:09:24;;;;;;;29.93;5.47;;;;;;;;;;5019779;28;20512;-69
2022/08/07 04:11:53;;;;;;;46.13;7.30;;;;;;;;;;5018424;28;20535;-70
2022/08/07 04:14:21;;;;;;;21.73;4.13;;;;;;;;;;5020922;28;20492;-68
2022/08/07 04:16:48;;;;;;;47.37;8.33;;;;;;;;;;5019735;28;20499;-69
2022/08/07 04:19:16;;;;;;;33.00;5.00;;;;;;;;;;5021265;28;20484;-69
2022/08/07 04:21:43;;;;;;;85.70;12.80;;;;;;;;;;5017616;28;20476;-69
2022/08/07 04:24:11;;;;;;;21.80;4.17;;;;;;;;;;5019556;28;20515;-70
2022/08/07 04:26:39;;;;;;;34.70;5.77;;;;;;;;;;5020591;28;20489;-68
2022/08/07 04:29:07;;;;;;;25.40;4.93;;;;;;;;;;5019625;28;21000;-69
2022/08/07 04:31:36;;;;;;;30.17;5.50;;;;;;;;;;5020382;28;20583;-69
2022/08/07 04:34:04;;;;;;;28.90;5.50;;;;;;;;;;5019664;28;20483;-70
2022/08/07 04:36:31;;;;;;;30.90;5.70;;;;;;;;;;5019976;28;20538;-68
2022/08/07 04:38:58;;;;;;;23.73;4.60;;;;;;;;;;5006216;28;20481;-70
2022/08/07 04:41:25;;;;;;;21.83;4.60;;;;;;;;;;5030040;28;20971;-70
2022/08/07 04:43:54;;;;;;;38.13;6.97;;;;;;;;;;5014364;28;20898;-70
2022/08/07 04:46:23;;;;;;;38.13;6.63;;;;;;;;;;5022693;28;20546;-71
2022/08/07 04:48:57;;;;;;;45.20;7.70;;;;;;;;;;5019732;28;20489;-69
2022/08/07 04:51:26;;;;;;;17.40;3.63;;;;;;;;;;5023538;28;20468;-69
2022/08/07 04:53:55;;;;;;;47.53;8.33;;;;;;;;;;5021256;28;20488;-69
2022/08/07 04:56:26;;;;;;;32.47;6.27;;;;;;;;;;5025354;28;20495;-69
2022/08/07 04:58:58;;;;;;;35.57;6.70;;;;;;;;;;5024972;28;20894;-69
2022/08/07 05:01:31;;;;;;;31.33;5.67;;;;;;;;;;5019845;28;20484;-69
2022/08/07 05:04:03;;;;;;;31.80;6.63;;;;;;;;;;5022660;28;20499;-69
2022/08/07 05:06:35;;;;;;;30.67;4.93;;;;;;;;;;5023863;28;20542;-70
2022/08/07 05:09:05;;;;;;;23.73;5.93;;;;;;;;;;5023978;28;20476;-70
2022/08/07 05:11:35;;;;;;;30.20;5.17;;;13.90;73.70;;;;;;5021346;28;21056;-70
2022/08/07 05:14:06;;;;;;;32.40;6.17;;;;;;;;;;5021884;28;20522;-69
2022/08/07 05:16:35;;;;;;;30.20;5.53;;;;;;;;;;5011580;28;20558;-68
2022/08/07 05:19:05;;;;;;;44.40;5.40;;;;;;;;;;5024115;28;21748;-68
2022/08/07 05:21:33;;;;;;;35.20;6.30;;;;;;;;;;5022326;28;20484;-68
2022/08/07 05:24:01;;;;;;;36.97;7.23;;;;;;;;;;5021042;28;20578;-68
2022/08/07 05:26:30;;;;;;;35.90;5.70;;;;;;;;;;5019311;28;21039;-68
2022/08/07 05:28:58;;;;;;;18.10;4.20;;;;;;;;;;5021656;28;20489;-67
2022/08/07 05:31:27;;;;;;;28.83;4.97;;;;;;;;;;5021990;28;20472;-68
2022/08/07 05:33:55;;;;;;;41.57;6.43;;;;;;;;;;5018380;28;20483;-69
2022/08/07 05:36:28;;;;;;;18.60;3.90;;;;;;;;;;5008524;28;20903;-69
2022/08/07 05:38:55;;;;;;;22.27;4.57;;;;;;;;;;5017750;28;20546;-69
2022/08/07 05:41:23;;;;;;;20.40;3.97;;;;;;;;;;5023027;28;20550;-69
2022/08/07 05:43:52;;;;;;;60.73;9.50;;;;;;;;;;5021144;28;20493;-69
2022/08/07 05:46:21;;;;;;;23.40;4.93;;;;;;;;;;5017299;28;20477;-68
2022/08/07 05:48:49;;;;;;;58.80;9.63;;;;;;;;;;5022563;28;21043;-69
2022/08/07 05:51:16;;;;;;;25.70;4.57;;;;;;;;;;5017731;28;20499;-68
2022/08/07 05:53:44;;;;;;;41.27;9.13;;;;;;;;;;5022074;28;20840;-68
2022/08/07 05:56:12;;;;;;;26.17;4.77;;;;;;;;;;5022047;28;20476;-68
2022/08/07 05:58:40;;;;;;;52.50;9.07;;;;;;;;;;5020769;28;20492;-69
2022/08/07 06:01:09;;;;;;;27.53;4.27;;;;;;;;;;5021830;28;20481;-68
2022/08/07 06:03:37;;;;;;;49.27;7.57;;;;;;;;;;5020924;28;20485;-69
2022/08/07 06:06:04;;;;;;;19.80;4.23;;;;;;;;;;5019848;28;20512;-68
2022/08/07 06:08:32;;;;;;;28.73;4.43;;;;;;;;;;5014031;28;20481;-70
2022/08/07 06:11:01;;;;;;;31.43;5.97;;;;;;;;;;5021760;28;20942;-70
2022/08/07 06:13:28;;;;;;;25.87;4.97;;;;;;;;;;5023089;28;20487;-69
2022/08/07 06:15:56;;;;;;;13.53;4.07;;;;;;;;;;5019479;28;20489;-69
2022/08/07 06:18:23;;;;;;;14.03;2.97;;;;;;;;;;5022051;28;20485;-68
2022/08/07 06:20:50;;;;;;;41.83;7.17;;;;;;;;;;5021941;28;21222;-68
2022/08/07 06:23:17;;;;;;;30.13;5.43;;;;;;;;;;5020726;28;20485;-68
2022/08/07 06:25:45;;;;;;;63.90;10.40;;;;;;;;;;5018145;28;20476;-69
2022/08/07 06:28:13;;;;;;;37.07;5.50;;;;;;;;;;5020969;28;20512;-70
2022/08/07 06:30:40;;;;;;;62.00;9.87;;;;;;;;;;5022290;28;20492;-69
2022/08/07 06:33:07;;;;;;;30.40;5.87;;;;;;;;;;5011960;28;20940;-70
2022/08/07 06:35:36;;;;;;;25.40;4.47;;;;;;;;;;5019755;28;20489;-71
2022/08/07 06:38:03;;;;;;;19.43;4.27;;;;;;;;;;5020635;28;20591;-71
2022/08/07 06:40:31;;;;;;;21.80;4.30;;;;;;;;;;5020623;28;20489;-70
2022/08/07 06:42:59;;;;;;;20.17;5.33;;;;;;;;;;5022187;28;20508;-69
2022/08/07 06:45:28;;;;;;;22.03;4.10;;;;;;;;;;5020742;28;20485;-70
2022/08/07 06:47:55;;;;;;;22.50;5.27;;;;;;;;;;5021440;28;20846;-69
2022/08/07 06:50:22;;;;;;;23.13;4.60;;;;;;;;;;5014062;28;20571;-69
2022/08/07 06:52:53;;;;;;;37.77;6.97;;;;;;;;;;4989376;28;20485;-69
2022/08/07 06:55:23;;;;;;;29.77;5.70;;;19.60;62.30;;;;;;5021195;28;20477;-69
2022/08/07 06:57:51;;;;;;;39.00;6.90;;;;;;;;;;5020870;28;20481;-71
2022/08/07 07:00:19;;;;;;;22.87;4.70;;;;;;;;;;5019232;28;20476;-70
2022/08/07 07:02:48;;;;;;;61.70;9.37;;;;;;;;;;5016981;28;20561;-71
2022/08/07 07:05:16;;;;;;;39.47;6.30;;;;;;;;;;5023375;28;20491;-71
2022/08/07 07:07:46;;;;;;;74.53;11.13;;;;;;;;;;5019316;28;20507;-71
2022/08/07 07:10:14;;;;;;;22.23;3.97;;;;;;;;;;5021526;28;20575;-71
2022/08/07 07:12:43;;;;;;;72.77;10.93;;;;;;;;;;5011955;28;20486;-71
2022/08/07 07:15:14;;;;;;;40.00;5.90;;;;;;;;;;5025064;28;21012;-70
2022/08/07 07:17:43;;;;;;;52.57;8.87;;;;;;;;;;5022149;28;20498;-71
2022/08/07 07:20:17;;;;;;;36.00;6.37;;;;;;;;;;5020868;28;20487;-71
2022/08/07 07:22:44;;;;;;;49.83;7.93;;;;;;;;;;5019114;28;20488;-71
2022/08/07 07:25:13;;;;;;;33.87;5.20;;;;;;;;;;5019400;28;20562;-71
2022/08/07 07:27:41;;;;;;;87.07;13.00;;;;;;;;;;5019737;28;21285;-70
2022/08/07 07:30:09;;;;;;;31.10;5.80;;;22.70;59.00;;;;;;5021106;28;20996;-70
2022/08/07 07:32:39;;;;;;;57.43;8.20;;;;;;;;;;5022192;28;20499;-70
2022/08/07 07:35:09;;;;;;;28.87;5.30;;;;;;;;;;5021223;28;21048;-71
2022/08/07 07:37:39;;;;;;;56.67;7.17;;;;;;;;;;5021734;28;20480;-70
2022/08/07 07:40:07;;;;;;;27.07;5.10;;;;;;;;;;5021243;28;20555;-70
2022/08/07 07:42:34;;;;;;;26.10;4.33;;;;;;;;;;5021649;28;20469;-71
2022/08/07 07:45:04;;;;;;;15.73;3.50;;;;;;;;;;5020032;28;20528;-70
2022/08/07 07:47:32;;;;;;;16.53;3.80;;;;;;;;;;5019167;28;21131;-70
2022/08/07 07:50:00;;;;;;;19.43;4.70;;;;;;;;;;5019568;28;20477;-72
2022/08/07 07:52:28;;;;;;;41.10;6.37;;;;;;;;;;5019987;28;20480;-69
2022/08/07 07:54:58;;;;;;;17.27;4.80;;;;;;;;;;5009354;28;20520;-70
2022/08/07 07:57:25;;;;;;;24.03;4.73;;;;;;;;;;5020694;28;21061;-69
2022/08/07 07:59:53;;;;;;;34.07;7.60;;;;;;;;;;5009146;28;20498;-71
2022/08/07 08:02:20;;;;;;;29.17;6.00;;;;;;;;;;5018009;28;20485;-71
2022/08/07 08:04:47;;;;;;;57.40;10.00;;;;;;;;;;5019111;28;20491;-70
2022/08/07 08:07:20;;;;;;;35.17;6.93;;;;;;;;;;5017532;28;20546;-70
2022/08/07 08:09:49;;;;;;;56.57;9.83;;;;;;;;;;5018071;28;20842;-71
2022/08/07 08:12:18;;;;;;;25.33;5.37;;;;;;;;;;5020475;28;20489;-70
2022/08/07 08:14:46;;;;;;;55.13;9.80;;;;;;;;;;5013850;28;20484;-70
2022/08/07 08:17:14;;;;;;;33.63;6.67;;;25.00;56.70;;;;;;5015784;28;20476;-71
2022/08/07 08:19:41;;;;;;;33.90;6.10;;;;;;;;;;5021206;28;20484;-69
2022/08/07 08:27:44;;;;;;;67.67;12.37;;;;;;;;;;5010165;28;20980;-69
2022/08/07 08:30:13;;;;;;;32.57;5.30;;;;;;;;;;5015839;28;20488;-69
2022/08/07 08:32:41;;;;;;;70.43;11.40;;;;;;;;;;5018496;28;20476;-71
2022/08/07 08:35:10;;;;;;;34.77;7.10;;;;;;;;;;5020386;28;20526;-70
2022/08/07 08:37:38;;;;;;;44.40;6.93;;;;;;;;;;5016583;28;21031;-70
2022/08/07 08:40:08;;;;;;;22.17;5.27;;;;;;;;;;5020092;28;20504;-68
2022/08/07 08:42:38;;;;;;;38.63;7.97;;;;;;;;;;5014962;28;20969;-69
2022/08/07 08:45:14;;;;;;;29.67;5.97;;;26.20;56.70;;;;;;5018381;28;20539;-69
2022/08/07 08:47:44;;;;;;;81.63;13.07;;;;;;;;;;5019094;28;20480;-69
2022/08/07 08:50:15;;;;;;;33.93;5.63;;;;;;;;;;5021237;28;20492;-70
2022/08/07 08:52:47;;;;;;;48.77;8.80;;;;;;;;;;5019130;28;20484;-70
2022/08/07 08:55:19;;;;;;;37.67;6.87;;;;;;;;;;5014455;28;20547;-72
2022/08/07 08:57:51;;;;;;;43.53;8.63;;;;;;;;;;5008739;28;20561;-69
2022/08/07 09:00:19;;;;;;;32.37;6.50;;;;;;;;;;5017519;28;20546;-70
2022/08/07 09:02:50;;;;;;;46.40;10.20;;;;;;;;;;5016522;28;20485;-69
2022/08/07 09:05:24;;;;;;;34.23;6.23;;;;;;;;;;5016664;28;21039;-71
2022/08/07 09:07:54;;;;;;;56.97;10.03;;;;;;;;;;5014986;28;21375;-70
2022/08/07 09:10:24;;;;;;;40.17;7.40;;;;;;;;;;5017932;28;20624;-71
2022/08/07 09:12:54;;;;;;;51.47;8.20;;;;;;;;;;5017121;28;20497;-71
2022/08/07 09:15:29;;;;;;;37.13;6.40;;;;;;;;;;5010668;28;20510;-70
2022/08/07 09:18:02;;;;;;;21.77;5.43;;;;;;;;;;5014749;28;20567;-71
2022/08/07 09:20:33;;;;;;;63.60;6.40;;;;;;;;;;5017062;28;20550;-70
2022/08/07 09:23:05;;;;;;;22.30;5.20;;;;;;;;;;5019420;28;20992;-71
2022/08/07 09:25:35;;;;;;;26.57;4.90;;;;;;;;;;5012724;28;20826;-70
2022/08/07 09:28:04;;;;;;;41.33;7.07;;;;;;;;;;5019809;28;20461;-70
2022/08/07 09:30:53;;;;;;;17.07;4.10;;;;;;;;;;5018235;28;20491;-69
2022/08/07 09:33:28;;;;;;;41.13;7.50;;;;;;;;;;5018881;28;20476;-69
2022/08/07 09:35:57;;;;;;;19.83;4.90;;;;;;;;;;5018025;28;20480;-69
2022/08/07 09:38:26;;;;;;;59.80;9.40;;;;;;;;;;5022161;28;20496;-68
2022/08/07 09:41:03;;;;;;;38.17;6.73;;;;;;;;;;5022785;28;21837;-69
2022/08/07 09:43:34;;;;;;;26.10;5.50;;;;;;;;;;5020275;28;20468;-69
2022/08/07 09:46:09;;;;;;;17.53;4.97;;;;;;;;;;5022574;28;20977;-69
2022/08/07 09:48:43;;;;;;;32.50;6.47;;;;;;;;;;5011244;28;20473;-70
2022/08/07 09:51:16;;;;;;;24.40;5.60;;;;;;;;;;5022090;28;20480;-69
2022/08/07 09:53:43;;;;;;;58.70;10.30;;;;;;;;;;5020868;28;20885;-69
2022/08/07 09:56:24;;;;;;;27.70;6.20;;;;;;;;;;5012601;28;20507;-69
2022/08/07 09:58:57;;;;;;;47.93;8.90;;;;;;;;;;5021431;28;20488;-73
2022/08/07 10:01:37;;;;;;;25.50;5.77;;;;;;;;;;5018216;28;20491;-73
2022/08/07 10:04:14;;;;;;;19.30;5.10;;;;;;;;;;5029478;28;20492;-72
2022/08/07 10:06:50;;;;;;;84.27;14.07;;;;;;;;;;5007439;28;20964;-73
2022/08/07 10:09:27;;;;;;;21.23;4.80;;;;;;;;;;5022175;28;20972;-73
2022/08/07 10:12:05;;;;;;;39.87;6.97;;;;;;;;;;5015896;28;20854;-73
2022/08/07 10:15:03;;;;;;;20.33;4.63;;;30.20;50.60;;;;;;5019777;28;20919;-73
2022/08/07 10:17:43;;;;;;;25.10;5.80;;;;;;;;;;5019114;28;20546;-70
2022/08/07 10:20:16;;;;;;;27.67;5.77;;;;;;;;;;5011389;28;20534;-72
2022/08/07 10:22:57;;;;;;;73.67;12.40;;;;;;;;;;5015887;28;20533;-71
2022/08/07 10:25:29;;;;;;;20.40;5.53;;;;;;;;;;5019342;28;20459;-73
2022/08/07 10:28:12;;;;;;;19.07;6.20;;;;;;;;;;5020064;28;20886;-74
2022/08/07 10:30:55;;;;;;;75.67;11.80;;;30.10;52.10;;;;;;5022477;28;20451;-70
2022/08/07 10:33:31;;;;;;;34.23;6.83;;;;;;;;;;5010869;28;20834;-68
2022/08/07 10:36:05;;;;;;;19.10;5.27;;;;;;;;;;5018779;28;20551;-69
2022/08/07 10:38:44;;;;;;;28.80;6.43;;;;;;;;;;5021090;28;20502;-69
2022/08/07 10:41:15;;;;;;;25.50;5.57;;;;;;;;;;5012206;28;20874;-70
2022/08/07 10:43:48;;;;;;;63.13;10.80;;;;;;;;;;5000738;28;20485;-69
2022/08/07 10:46:19;;;;;;;35.33;6.83;;;;;;;;;;4998383;28;20628;-70
2022/08/07 10:48:52;;;;;;;52.23;9.50;;;;;;;;;;5017884;28;20951;-70
2022/08/07 10:51:22;;;;;;;29.67;6.03;;;;;;;;;;5018162;28;20463;-69
2022/08/07 10:53:53;;;;;;;77.00;12.67;;;;;;;;;;5018723;28;20488;-70
2022/08/07 10:56:26;;;;;;;36.30;7.13;;;;;;;;;;5020226;28;20515;-70
2022/08/07 10:58:57;;;;;;;30.23;6.60;;;;;;;;;;5019816;28;20490;-72
2022/08/07 11:01:29;;;;;;;34.23;6.47;;;;;;;;;;5011068;28;20918;-72
2022/08/07 11:04:02;;;;;;;31.07;6.40;;;;;;;;;;5019950;28;20564;-74
2022/08/07 11:06:33;;;;;;;28.57;5.37;;;;;;;;;;5021057;28;20481;-73
2022/08/07 11:09:03;;;;;;;21.33;5.47;;;;;;;;;;5016265;28;20484;-72
2022/08/07 11:11:33;;;;;;;15.87;4.60;;;;;;;;;;5020822;28;20484;-71
2022/08/07 11:14:04;;;;;;;50.50;8.00;;;;;;;;;;5018732;28;20488;-72
2022/08/07 11:16:34;;;;;;;15.40;4.60;;;;;;;;;;5021578;28;20854;-73
2022/08/07 11:19:05;;;;;;;12.77;4.80;;;;;;;;;;5020039;28;20546;-71
2022/08/07 11:21:37;;;;;;;28.63;6.10;;;;;;;;;;5016024;28;20487;-72
2022/08/07 11:24:11;;;;;;;11.43;3.57;;;;;;;;;;5018712;28;20476;-72
2022/08/07 11:26:41;;;;;;;62.40;9.17;;;;;;;;;;5010467;28;20511;-70
2022/08/07 11:29:11;;;;;;;28.77;6.17;;;;;;;;;;5020810;28;20481;-70
2022/08/07 11:31:42;;;;;;;50.43;9.47;;;;;;;;;;5020909;28;20472;-71
2022/08/07 11:34:17;;;;;;;48.57;9.07;;;;;;;;;;5017705;28;20489;-72
2022/08/07 11:36:50;;;;;;;89.87;14.00;;;;;;;;;;5007974;28;21296;-70
2022/08/07 11:39:24;;;;;;;28.83;5.80;;;;;;;;;;5009917;28;20961;-70
2022/08/07 11:41:55;;;;;;;33.17;6.67;;;;;;;;;;5019581;28;21021;-71
2022/08/07 11:44:25;;;;;;;20.37;5.43;;;;;;;;;;5013109;28;20545;-71
2022/08/07 11:46:59;;;;;;;44.40;8.30;;;;;;;;;;5016564;28;20547;-71
2022/08/07 11:49:43;;;;;;;28.17;5.47;;;;;;;;;;5018552;28;20530;-72
2022/08/07 11:52:19;;;;;;;25.60;5.40;;;;;;;;;;5017998;28;20484;-71
2022/08/07 11:54:54;;;;;;;66.83;10.43;;;;;;;;;;5015770;28;20542;-70
2022/08/07 11:57:32;;;;;;;40.30;7.17;;;31.20;47.90;;;;;;5007694;28;20523;-70
2022/08/07 12:00:05;;;;;;;18.77;5.20;;;;;;;;;;5017556;28;20583;-71
2022/08/07 12:02:43;;;;;;;28.70;6.60;;;;;;;;;;5020670;28;20480;-71
2022/08/07 12:05:18;;;;;;;12.10;3.07;;;;;;;;;;5017525;28;20488;-71
2022/08/07 12:07:49;;;;;;;57.80;9.80;;;;;;;;;;5007665;28;21001;-71
2022/08/07 12:10:19;;;;;;;20.43;4.80;;;;;;;;;;5011069;28;20878;-72
2022/08/07 12:12:53;;;;;;;56.43;9.87;;;31.30;43.90;;;;;;5009189;28;20469;-72
2022/08/07 12:15:22;;;;;;;17.37;3.80;;;;;;;;;;5010075;28;21268;-72
2022/08/07 12:17:53;;;;;;;60.97;10.40;;;;;;;;;;5019230;28;20508;-70
2022/08/07 12:20:24;;;;;;;23.70;5.33;;;;;;;;;;5017744;28;20477;-72
2022/08/07 12:22:56;;;;;;;39.30;7.63;;;;;;;;;;5007799;28;20550;-71
2022/08/07 12:28:17;;;;;;;25.17;5.13;;;31.60;44.50;;;;;;5016268;28;20533;-71
2022/08/07 12:30:46;;;;;;;73.27;12.27;;;;;;;;;;5019312;28;20476;-71
2022/08/07 12:33:17;;;;;;;28.80;5.23;;;;;;;;;;5018135;28;20504;-71
2022/08/07 12:35:46;;;;;;;76.97;14.00;;;;;;;;;;5013215;28;20476;-71
2022/08/07 12:38:14;;;;;;;21.03;5.00;;;;;;;;;;5017921;28;20915;-71
2022/08/07 12:40:43;;;;;;;37.60;9.20;;;;;;;;;;5019714;28;20452;-70
2022/08/07 12:43:11;;;;;;;8.73;2.73;;;;;;;;;;5018962;28;20834;-71
2022/08/07 12:45:45;;;;;;;29.53;8.43;;;;;;;;;;5014266;28;20493;-69
2022/08/07 12:48:16;;;;;;;8.73;4.30;;;;;;;;;;5020674;28;20458;-70
2022/08/07 12:50:49;;;;;;;23.70;8.90;;;;;;;;;;5018360;28;20563;-71
2022/08/07 12:53:20;;;;;;;8.57;3.40;;;;;;;;;;5007630;28;20518;-71
2022/08/07 12:55:51;;;;;;;55.17;9.83;;;;;;;;;;5024187;28;20531;-71
2022/08/07 12:58:19;;;;;;;27.27;6.67;;;;;;;;;;5015813;28;20487;-71
2022/08/07 13:00:49;;;;;;;55.50;9.70;;;;;;;;;;5016726;28;20644;-72
2022/08/07 13:03:34;;;;;;;24.70;3.80;;;;;;;;;;5019254;28;20481;-71
2022/08/07 13:06:09;;;;;;;16.97;5.77;;;;;;;;;;5013086;28;20866;-72
2022/08/07 13:08:44;;;;;;;22.27;6.60;;;;;;;;;;5006968;28;21036;-72
2022/08/07 13:11:24;;;;;;;11.57;3.90;;;;;;;;;;5018042;28;20480;-71
2022/08/07 13:13:56;;;;;;;40.30;9.43;;;;;;;;;;5016223;28;20468;-73
2022/08/07 13:16:27;;;;;;;9.47;3.30;;;;;;;;;;5024321;28;20526;-73
2022/08/07 13:19:01;;;;;;;34.60;5.73;;;;;;;;;;5019214;28;20556;-73
2022/08/07 13:21:32;;;;;;;20.27;4.93;;;;;;;;;;5021793;28;20562;-71
2022/08/07 13:24:03;;;;;;;25.53;7.10;;;;;;;;;;5009490;28;20616;-73
2022/08/07 13:26:33;;;;;;;45.87;10.90;;;;;;;;;;5006217;28;21690;-71
2022/08/07 13:29:04;;;;;;;20.37;6.33;;;;;;;;;;5006965;28;21343;-71
2022/08/07 13:31:34;;;;;;;51.90;11.23;;;;;;;;;;5003625;28;20462;-72
2022/08/07 13:34:07;;;;;;;27.37;9.00;;;;;;;;;;5014337;28;20522;-71
2022/08/07 13:36:39;;;;;;;27.47;6.33;;;;;;;;;;5003173;28;20526;-72
2022/08/07 13:39:09;;;;;;;9.67;4.47;;;;;;;;;;5012600;28;20527;-70
2022/08/07 13:41:40;;;;;;;18.37;6.30;;;;;;;;;;5014275;28;20455;-71
2022/08/07 13:44:08;;;;;;;27.87;5.87;;;;;;;;;;5015441;28;20480;-71
2022/08/07 13:46:37;;;;;;;20.53;6.27;;;;;;;;;;5013021;28;21117;-71
2022/08/07 13:49:05;;;;;;;15.97;6.20;;;;;;;;;;5015188;28;21100;-72
2022/08/07 13:51:34;;;;;;;25.73;6.67;;;;;;;;;;5012244;28;20820;-72
2022/08/07 13:54:03;;;;;;;19.90;7.20;;;;;;;;;;5011757;28;20503;-71
2022/08/07 13:56:34;;;;;;;17.57;5.87;;;32.00;42.90;;;;;;5006802;28;20506;-72
2022/08/07 13:59:02;;;;;;;15.10;6.10;;;;;;;;;;5002063;28;20480;-71
2022/08/07 14:01:31;;;;;;;14.23;5.03;;;;;;;;;;5014724;28;20502;-70
2022/08/07 14:03:58;;;;;;;28.00;8.93;;;;;;;;;;4995936;28;20757;-71
2022/08/07 14:06:32;;;;;;;10.70;5.00;;;;;;;;;;5006927;28;20497;-71
2022/08/07 14:08:59;;;;;;;13.90;5.40;;;;;;;;;;5022808;28;20487;-70
2022/08/07 14:11:29;;;;;;;31.50;7.50;;;;;;;;;;5012793;28;20480;-71
2022/08/07 14:14:03;;;;;;;23.07;8.30;;;;;;;;;;5010575;28;20463;-70
2022/08/07 14:16:32;;;;;;;18.07;6.57;;;;;;;;;;5012741;28;20476;-71
2022/08/07 14:19:01;;;;;;;20.83;7.33;;;;;;;;;;5007718;28;20480;-71
2022/08/07 14:21:30;;;;;;;11.23;4.37;;;;;;;;;;5018516;28;20531;-71
2022/08/07 14:23:59;;;;;;;29.53;9.40;;;;;;;;;;5010717;28;20451;-71
2022/08/07 14:26:31;;;;;;;16.40;6.10;;;;;;;;;;5011720;28;20912;-71
2022/08/07 14:28:59;;;;;;;22.97;7.60;;;;;;;;;;5018969;28;20472;-71
2022/08/07 14:31:26;;;;;;;24.73;5.47;;;;;;;;;;5012470;28;20582;-72
2022/08/07 14:33:54;;;;;;;25.83;8.07;;;;;;;;;;5014448;28;20455;-71
2022/08/07 14:36:22;;;;;;;14.67;5.27;;;;;;;;;;5015426;28;20488;-73
2022/08/07 14:38:50;;;;;;;30.53;10.53;;;;;;;;;;5014732;28;20889;-71
2022/08/07 14:41:19;;;;;;;11.57;5.37;;;;;;;;;;5012097;28;20480;-73
2022/08/07 14:43:50;;;;;;;25.93;9.10;;;;;;;;;;5011376;28;20548;-72
2022/08/07 14:46:17;;;;;;;13.00;5.57;;;;;;;;;;5013359;28;20455;-71
2022/08/07 14:48:47;;;;;;;14.70;5.63;;;;;;;;;;5012488;28;20489;-72